Evadale, TX (77615)

12:33 AM CDT on August 02, 2015 (GMT -0500)
Silsbee Meteorological Center | | Change Station
CLOSE
Current Station
Personal Weather Station
Location: Silsbee, TX
Elevation: 79 ft
Nearby Weather Stations
Active Advisory: Flood Warning

Elev 79 ft 30.38 °N, 94.17 °W | Updated 3 seconds ago

Clear
Clear
69.6 °F
Feels Like 69.6 °F
N
0.0
Wind Variable Wind from South
Gusts 0.0 mph

Today
High -- | Low -- °F
--% Chance of Precip.
Yesterday
High -- | Low -- °F
Precip. -- in
6:35 AM 8:09 PM
Waning Gibbous, 95% visible
Pressure 29.93 in
Visibility 10.0 miles
Clouds Clear
Dew Point 63 °F
Humidity 80%
Rainfall 0.00 in
Snow Depth Not available.
UV 0 out of 12
Pollen 3.80 out of 12
Air Quality Not available.
Flu Activity Not available.
METAR KBMT 020515Z AUTO 00000KT 10SM CLR 24/21 A2993 RMK AO2 T02350210

More Conditions Fewer Conditions

Pressure 29.93 in
Visibility 10.0 miles
Clouds Clear
Dew Point 63 °F
Humidity 80%
Rainfall 0.00 in
Snow Depth Not available.
UV 0 out of 12
Pollen 3.80 out of 12
Air Quality Not available.
Flu Activity Not available.
METAR KBMT 020515Z AUTO 00000KT 10SM CLR 24/21 A2993 RMK AO2 T02350210

More Conditions Fewer Conditions

10-Day Weather Forecast

×

Almanac

Astronomy

Aug. 02, 2015 Rise Set
Actual Time
Civil Twilight
Nautical Twilight
Astronomical Twilight
Moon
Length of Visible Light
Length of Day
Tomorrow will be .
, % of the Moon is Illuminated

Today's Extremes

State Highs State Lows

Community

WunderPhotos

Upload Photos

1,843,196 photos uploaded!

WunderBlogs® & News

Nearby

Air Quality

  Air Quality AQ Index Pollutant
Not available.

Snow Depth

Station Depth Elevation

Earthquake Activity

City Distance Mag. Time & Date
Minimum magnitude displayed is 2.5.

Coastal Water Temperatures

Place Temperature

Stations

Nearby Weather Stations

Station Location Temp. Windchill Dew Point Humidity Wind Precip. Elev Updated Type
                   
Flood Warning
Statement as of 8:33 PM CDT on August 01, 2015

The Flood Warning continues for
the Neches River near town Bluff.
* From late Monday night until further notice... or until the warning
is cancelled.
* At 8:00 PM Saturday the stage was 61.6 feet.
* Minor flooding is forecast.
* Flood stage is 64.0 feet.
* Forecast... rise above flood stage by Tuesday morning and continue
to rise to near 64.2 feet by Tuesday early afternoon.
* Impact... at stages near 64.0 feet... minor flooding will occur.
* Impact... at stages near 62.0 feet... the river is at bankfull
stage.


Lat... Lon 3096 9432 3079 9420 3053 9418 3053 9399 3099 9415